Terminal Aerodrome Forecast
Issued by NWS Mobile, AL

Home | Current Version | Previous Version | Text Only | Print | Product List | Glossary On
Versions: 1 2 3 4 5 6 7 8 9 10 11 12 13 14 15 16 17 18 19 20 21 22 23
000
FTUS44 KMOB 291305 AAA
TAFPNS
TAF AMD
KPNS 291305Z 2913/3012 09005KT 1SM BR OVC001
     FM291500 16010KT P6SM SCT025
     FM300000 15006KT P6SM BKN025
     FM300600 16008KT 4SM BR OVC015=

USA.gov is the U.S. government's official web portal to all federal, state and local government web resources and services.